Time;durP1;ratioP1;P1;durP2;ratioP2;P2;SDS_P1;SDS_P2;PMS_P1;PMS_P2;Temp;Humidity;BMP_temperature;BMP_pressure;BME280_temperature;BME280_humidity;BME280_pressure;Samples;Min_cycle;Max_cycle;Signal;HPM_P1;HPM_P2
2023/12/30 00:01:50;;;;;;;1.13;0.80;;;10.80;99.90;;;;;;4958153;28;20038;-74
2023/12/30 00:04:15;;;;;;;2.65;0.82;;;10.80;99.90;;;;;;4974445;28;20031;-75
2023/12/30 00:06:41;;;;;;;3.97;0.98;;;10.80;99.90;;;;;;4974065;28;20030;-75
2023/12/30 00:09:07;;;;;;;4.97;0.90;;;10.80;99.90;;;;;;4958087;28;20121;-75
2023/12/30 00:11:32;;;;;;;1.58;0.70;;;10.80;99.90;;;;;;4958467;28;20027;-75
2023/12/30 00:13:58;;;;;;;2.10;0.90;;;10.80;99.90;;;;;;4957993;28;20027;-75
2023/12/30 00:16:27;;;;;;;1.27;1.00;;;10.80;99.90;;;;;;4958449;28;20023;-75
2023/12/30 00:18:52;;;;;;;2.58;1.02;;;10.80;99.90;;;;;;4974962;28;20038;-75
2023/12/30 00:21:19;;;;;;;1.15;0.70;;;10.70;99.90;;;;;;4958299;28;20081;-74
2023/12/30 00:23:45;;;;;;;1.98;0.70;;;10.70;99.90;;;;;;4957607;28;20469;-75
2023/12/30 00:26:25;;;;;;;2.63;0.60;;;10.60;99.90;;;;;;4975385;28;20105;-75
2023/12/30 00:28:51;;;;;;;1.77;0.80;;;10.60;99.90;;;;;;4957465;28;20041;-75
2023/12/30 00:31:27;;;;;;;2.38;0.80;;;10.50;99.90;;;;;;4957842;28;20380;-75
2023/12/30 00:33:58;;;;;;;2.20;0.90;;;10.50;99.90;;;;;;4957535;28;20034;-75
2023/12/30 00:36:24;;;;;;;2.45;0.80;;;10.40;99.90;;;;;;4957929;28;20165;-75
2023/12/30 00:38:54;;;;;;;1.85;0.95;;;10.40;99.90;;;;;;4974772;28;20037;-75
2023/12/30 00:41:20;;;;;;;3.38;0.93;;;10.30;99.90;;;;;;4958018;28;20026;-75
2023/12/30 00:43:46;;;;;;;1.67;0.70;;;10.20;99.90;;;;;;4974977;28;20082;-75
2023/12/30 00:46:11;;;;;;;2.35;1.02;;;10.10;99.90;;;;;;4975195;28;20039;-75
2023/12/30 00:48:37;;;;;;;6.25;1.25;;;10.00;99.90;;;;;;4957270;28;20041;-75
2023/12/30 00:51:02;;;;;;;4.20;0.90;;;10.00;99.90;;;;;;4975237;28;20054;-75
2023/12/30 00:53:29;;;;;;;1.92;0.90;;;9.90;99.90;;;;;;4974978;28;20035;-75
2023/12/30 00:55:55;;;;;;;2.58;0.80;;;9.90;99.90;;;;;;4957088;28;20476;-75
2023/12/30 00:58:21;;;;;;;1.95;0.80;;;9.90;99.90;;;;;;4974917;28;20085;-75
2023/12/30 01:00:46;;;;;;;3.30;0.80;;;9.80;99.90;;;;;;4974037;28;20460;-75
2023/12/30 01:03:12;;;;;;;1.30;0.68;;;9.80;99.90;;;;;;4974688;28;20026;-75
2023/12/30 01:05:37;;;;;;;1.35;0.70;;;9.70;99.90;;;;;;4956694;28;20077;-77
2023/12/30 01:08:03;;;;;;;2.13;0.85;;;9.70;99.90;;;;;;4957649;28;20130;-75
2023/12/30 01:10:29;;;;;;;1.00;0.90;;;9.70;99.90;;;;;;4974343;28;20443;-75
2023/12/30 01:12:55;;;;;;;1.73;0.90;;;9.70;99.90;;;;;;4974117;28;20030;-75
2023/12/30 01:15:20;;;;;;;2.25;0.90;;;9.70;99.90;;;;;;4957261;28;20031;-75
2023/12/30 01:17:46;;;;;;;1.63;1.30;;;9.60;99.90;;;;;;4972843;28;20129;-75
2023/12/30 01:20:11;;;;;;;3.13;0.90;;;9.60;99.90;;;;;;4974636;28;20031;-75
2023/12/30 01:22:37;;;;;;;2.33;0.80;;;9.60;99.90;;;;;;4956666;28;20037;-91
2023/12/30 01:25:03;;;;;;;2.03;1.05;;;9.50;99.90;;;;;;4974425;28;20037;-75
2023/12/30 01:27:34;;;;;;;3.10;1.02;;;9.50;99.90;;;;;;4956905;28;20031;-75
2023/12/30 01:30:00;;;;;;;2.17;0.95;;;9.50;99.90;;;;;;4973822;28;20058;-75
2023/12/30 01:32:25;;;;;;;1.45;0.75;;;9.50;99.90;;;;;;4973076;28;20105;-75
2023/12/30 01:34:51;;;;;;;1.67;0.70;;;9.50;99.90;;;;;;4973751;28;20034;-75
2023/12/30 01:37:16;;;;;;;2.45;1.00;;;9.50;99.90;;;;;;4974323;28;20049;-75
2023/12/30 01:39:42;;;;;;;1.38;0.82;;;9.50;99.90;;;;;;4956563;28;20027;-75
2023/12/30 01:42:08;;;;;;;3.13;0.80;;;9.50;99.90;;;;;;4973837;28;20487;-74
2023/12/30 01:44:35;;;;;;;2.63;0.68;;;9.40;99.90;;;;;;4956641;28;20060;-74
2023/12/30 01:47:01;;;;;;;3.25;0.63;;;9.50;99.90;;;;;;4956365;28;20038;-75
2023/12/30 01:49:27;;;;;;;1.50;1.13;;;9.50;99.90;;;;;;4974112;28;20031;-75
2023/12/30 01:51:53;;;;;;;2.67;1.58;;;9.50;99.90;;;;;;4956276;28;20097;-75
2023/12/30 01:54:21;;;;;;;1.85;0.82;;;9.40;99.90;;;;;;4956685;28;20034;-75
2023/12/30 01:56:49;;;;;;;2.60;1.42;;;9.40;99.90;;;;;;4973759;28;20031;-75
2023/12/30 01:59:17;;;;;;;1.65;0.90;;;9.40;99.90;;;;;;4956451;28;20400;-74
2023/12/30 02:01:44;;;;;;;1.30;0.90;;;9.40;99.90;;;;;;4972279;28;20031;-76
2023/12/30 02:04:11;;;;;;;1.65;0.80;;;9.40;99.90;;;;;;4956788;28;20023;-75
2023/12/30 02:06:37;;;;;;;3.25;0.80;;;9.40;99.90;;;;;;4973900;28;20019;-75
2023/12/30 02:09:03;;;;;;;1.92;0.90;;;9.40;99.90;;;;;;4973408;28;20023;-75
2023/12/30 02:11:29;;;;;;;2.35;0.93;;;9.50;99.90;;;;;;4956548;28;20058;-75
2023/12/30 02:13:54;;;;;;;1.48;0.70;;;9.40;99.90;;;;;;4972175;28;20464;-75
2023/12/30 02:16:20;;;;;;;1.40;0.90;;;9.40;99.90;;;;;;4972689;28;20031;-74
2023/12/30 02:18:45;;;;;;;1.65;0.85;;;9.40;99.90;;;;;;4956026;28;20373;-75
2023/12/30 02:21:11;;;;;;;3.38;1.17;;;9.40;99.90;;;;;;4973828;28;20022;-75
2023/12/30 02:23:36;;;;;;;1.63;1.00;;;9.40;99.90;;;;;;4973707;28;20029;-75
2023/12/30 02:26:05;;;;;;;0.80;0.60;;;9.40;99.90;;;;;;4956026;28;20461;-75
2023/12/30 02:28:30;;;;;;;2.00;0.73;;;9.40;99.90;;;;;;4973796;28;20031;-75
2023/12/30 02:30:56;;;;;;;3.40;0.80;;;9.30;99.90;;;;;;4973246;28;20042;-76
2023/12/30 02:33:22;;;;;;;1.33;0.85;;;9.30;99.90;;;;;;4956480;28;20083;-75
2023/12/30 02:35:47;;;;;;;3.72;1.08;;;9.40;99.90;;;;;;4955967;28;20031;-75
2023/12/30 02:38:13;;;;;;;1.30;0.73;;;9.30;99.90;;;;;;4973647;28;20400;-75
2023/12/30 02:40:38;;;;;;;1.50;0.90;;;9.30;99.90;;;;;;4972404;28;20415;-75
2023/12/30 02:43:04;;;;;;;1.10;0.75;;;9.30;99.90;;;;;;4955366;28;20029;-74
2023/12/30 02:45:30;;;;;;;3.13;0.93;;;9.40;99.90;;;;;;4956387;28;20027;-75
2023/12/30 02:47:55;;;;;;;1.38;1.25;;;9.40;99.90;;;;;;4955814;28;20027;-75
2023/12/30 02:50:21;;;;;;;0.80;0.70;;;9.40;99.90;;;;;;4973559;28;20030;-75
2023/12/30 02:52:46;;;;;;;2.00;0.90;;;9.40;99.90;;;;;;4973138;28;20037;-75
2023/12/30 02:55:12;;;;;;;1.75;1.00;;;9.40;99.90;;;;;;4957460;28;20523;-75
2023/12/30 02:57:37;;;;;;;1.17;0.85;;;9.40;99.90;;;;;;4976902;28;20054;-75
2023/12/30 03:00:03;;;;;;;2.75;0.95;;;9.40;99.90;;;;;;4959269;28;20030;-75
2023/12/30 03:02:29;;;;;;;1.25;0.80;;;9.40;99.90;;;;;;4976961;28;20456;-75
2023/12/30 03:04:55;;;;;;;2.72;0.82;;;9.40;99.90;;;;;;4959239;28;20110;-75
2023/12/30 03:07:20;;;;;;;3.00;1.10;;;9.40;99.90;;;;;;4976805;28;20034;-75
2023/12/30 03:09:46;;;;;;;2.20;0.90;;;9.50;99.90;;;;;;4959038;28;20062;-75
2023/12/30 03:12:11;;;;;;;2.60;1.00;;;9.50;99.90;;;;;;4959200;28;20023;-75
2023/12/30 03:14:37;;;;;;;1.30;0.80;;;9.50;99.90;;;;;;4959444;28;20027;-74
2023/12/30 03:17:03;;;;;;;1.27;0.80;;;9.40;99.90;;;;;;4974934;28;20484;-74
2023/12/30 03:19:28;;;;;;;4.45;1.05;;;9.40;99.90;;;;;;4976423;28;20074;-75
2023/12/30 03:21:54;;;;;;;1.58;1.05;;;9.50;99.90;;;;;;4958814;28;20027;-75
2023/12/30 03:24:20;;;;;;;4.28;1.05;;;9.50;99.90;;;;;;4975304;28;20076;-75
2023/12/30 03:26:45;;;;;;;1.90;1.27;;;9.40;99.90;;;;;;4974872;28;20100;-78
2023/12/30 03:29:11;;;;;;;1.65;1.10;;;9.40;99.90;;;;;;4976143;28;20043;-75
2023/12/30 03:31:37;;;;;;;2.40;1.20;;;9.40;99.90;;;;;;4976807;28;20037;-75
2023/12/30 03:34:02;;;;;;;1.55;1.17;;;9.40;99.90;;;;;;4975956;28;20444;-75
2023/12/30 03:36:28;;;;;;;3.35;1.40;;;9.40;99.90;;;;;;4974995;28;20055;-75
2023/12/30 03:38:54;;;;;;;3.72;1.20;;;9.30;99.90;;;;;;4974485;28;20038;-75
2023/12/30 03:41:20;;;;;;;4.65;1.70;;;9.30;99.90;;;;;;4976301;28;20038;-75
2023/12/30 03:43:47;;;;;;;2.28;1.30;;;9.30;99.90;;;;;;4958763;28;20023;-89
2023/12/30 03:46:13;;;;;;;2.65;1.52;;;9.30;99.90;;;;;;4958840;28;20051;-75
2023/12/30 03:48:38;;;;;;;2.63;1.30;;;9.30;99.90;;;;;;4976101;28;20073;-74
2023/12/30 03:51:05;;;;;;;3.10;1.58;;;9.20;99.90;;;;;;4958285;28;20077;-75
2023/12/30 03:53:32;;;;;;;4.05;1.45;;;9.20;99.90;;;;;;4958715;28;20073;-75
2023/12/30 03:55:57;;;;;;;3.25;1.73;;;9.20;99.90;;;;;;4975635;28;20031;-75
2023/12/30 03:58:23;;;;;;;3.53;1.70;;;9.30;99.90;;;;;;4958556;28;20102;-74
2023/12/30 04:00:48;;;;;;;2.03;1.50;;;9.30;99.90;;;;;;4974208;28;20125;-75
2023/12/30 04:03:14;;;;;;;2.47;1.27;;;9.30;99.90;;;;;;4958710;28;20114;-75
2023/12/30 04:05:40;;;;;;;2.70;1.50;;;9.30;99.90;;;;;;4958110;28;20503;-75
2023/12/30 04:08:06;;;;;;;2.03;1.02;;;9.20;99.90;;;;;;4975347;28;20113;-75
2023/12/30 04:10:32;;;;;;;2.45;1.50;;;9.30;99.90;;;;;;4975845;28;20026;-75
2023/12/30 04:12:57;;;;;;;3.22;1.15;;;9.20;99.90;;;;;;4957985;28;20042;-75
2023/12/30 04:15:23;;;;;;;2.47;1.25;;;9.20;99.90;;;;;;4975642;28;20384;-75
2023/12/30 04:17:49;;;;;;;3.05;1.60;;;9.20;99.90;;;;;;4975145;28;20392;-76
2023/12/30 04:20:14;;;;;;;5.45;1.40;;;9.20;99.90;;;;;;4975553;28;20030;-74
2023/12/30 04:22:40;;;;;;;2.28;1.20;;;9.20;99.90;;;;;;4958354;28;20460;-75
2023/12/30 04:25:06;;;;;;;3.00;1.40;;;9.20;99.90;;;;;;4974763;28;20497;-75
2023/12/30 04:27:32;;;;;;;2.70;1.30;;;9.20;99.90;;;;;;4975239;28;20487;-75
2023/12/30 04:29:57;;;;;;;1.45;1.20;;;9.20;99.90;;;;;;4975049;28;20109;-75
2023/12/30 04:32:24;;;;;;;2.78;1.40;;;9.20;99.90;;;;;;4958024;28;20173;-75
2023/12/30 04:34:50;;;;;;;2.15;1.60;;;9.20;99.90;;;;;;4974863;28;20051;-77
2023/12/30 04:37:16;;;;;;;2.47;1.48;;;9.30;99.90;;;;;;4957656;28;20043;-75
2023/12/30 04:39:41;;;;;;;1.92;1.20;;;9.20;99.90;;;;;;4975239;28;20031;-75
2023/12/30 04:42:07;;;;;;;2.95;1.05;;;9.20;99.90;;;;;;4957430;28;20031;-75
2023/12/30 04:44:33;;;;;;;1.75;1.10;;;9.20;99.90;;;;;;4957905;28;20030;-75
2023/12/30 04:46:58;;;;;;;2.30;1.00;;;9.20;99.90;;;;;;4974908;28;20379;-75
2023/12/30 04:49:24;;;;;;;1.67;1.00;;;9.10;99.90;;;;;;4957745;28;20030;-75
2023/12/30 04:51:50;;;;;;;4.43;1.27;;;9.10;99.90;;;;;;4957724;28;20480;-75
2023/12/30 04:54:15;;;;;;;1.83;1.20;;;9.10;99.90;;;;;;4957534;28;20081;-75
2023/12/30 04:56:41;;;;;;;2.20;1.08;;;9.20;99.90;;;;;;4974819;28;20027;-75
2023/12/30 04:59:09;;;;;;;2.30;1.05;;;9.20;99.90;;;;;;4974405;28;20054;-75
2023/12/30 05:01:34;;;;;;;3.60;1.02;;;9.20;99.90;;;;;;4957483;28;20361;-75
2023/12/30 05:04:01;;;;;;;2.85;1.00;;;9.30;99.90;;;;;;4956981;28;20037;-75
2023/12/30 05:06:27;;;;;;;1.42;1.00;;;9.30;99.90;;;;;;4974675;28;20019;-75
2023/12/30 05:08:53;;;;;;;2.72;1.20;;;9.30;99.90;;;;;;4974151;28;20030;-76
2023/12/30 05:11:19;;;;;;;4.03;1.10;;;9.30;99.90;;;;;;4974664;28;20035;-75
2023/12/30 05:13:46;;;;;;;1.88;0.95;;;9.20;99.90;;;;;;4974650;28;20461;-75
2023/12/30 05:16:11;;;;;;;2.75;1.10;;;9.20;99.90;;;;;;4974044;28;20436;-75
2023/12/30 05:18:37;;;;;;;3.03;0.80;;;9.20;99.90;;;;;;4956458;28;20480;-75
2023/12/30 05:21:03;;;;;;;3.08;1.08;;;9.30;99.90;;;;;;4974011;28;20023;-75
2023/12/30 05:23:31;;;;;;;2.63;1.00;;;9.20;99.90;;;;;;4957276;28;20023;-75
2023/12/30 05:25:57;;;;;;;0.93;0.80;;;9.20;99.90;;;;;;4974040;28;20067;-75
2023/12/30 05:28:22;;;;;;;1.42;0.73;;;9.20;99.90;;;;;;4972953;28;20415;-75
2023/12/30 05:30:48;;;;;;;2.53;1.02;;;9.20;99.90;;;;;;4974320;28;20038;-74
2023/12/30 05:33:14;;;;;;;1.48;0.90;;;9.30;99.90;;;;;;4956269;28;20031;-75
2023/12/30 05:35:40;;;;;;;2.35;0.88;;;9.30;99.90;;;;;;4956915;28;20432;-75
2023/12/30 05:38:05;;;;;;;1.02;0.65;;;9.30;99.90;;;;;;4955977;28;20086;-75
2023/12/30 05:40:31;;;;;;;3.33;0.80;;;9.30;99.90;;;;;;4956931;28;20057;-75
2023/12/30 05:42:56;;;;;;;0.93;0.80;;;9.30;99.90;;;;;;4973659;28;20030;-75
2023/12/30 05:45:22;;;;;;;2.38;0.63;;;9.30;99.90;;;;;;4974197;28;20027;-75
2023/12/30 05:47:48;;;;;;;0.90;0.60;;;9.30;99.90;;;;;;4974119;28;20061;-75
2023/12/30 05:50:13;;;;;;;2.40;0.80;;;9.20;99.90;;;;;;4956360;28;20078;-75
2023/12/30 05:52:39;;;;;;;3.33;0.63;;;9.20;99.90;;;;;;4974381;28;20473;-75
2023/12/30 05:55:05;;;;;;;2.17;0.65;;;9.20;99.90;;;;;;4955944;28;20468;-75
2023/12/30 05:57:31;;;;;;;2.00;0.47;;;9.20;99.90;;;;;;4956457;28;20129;-75
2023/12/30 05:59:56;;;;;;;2.30;0.60;;;9.20;99.90;;;;;;4973490;28;20158;-75
2023/12/30 06:02:25;;;;;;;2.17;0.68;;;9.20;99.90;;;;;;4956503;28;20173;-75
2023/12/30 06:04:51;;;;;;;1.05;0.50;;;9.20;99.90;;;;;;4972273;28;20062;-75
2023/12/30 06:07:16;;;;;;;1.23;0.70;;;9.20;99.90;;;;;;4973388;28;20469;-75
2023/12/30 06:09:42;;;;;;;0.75;0.60;;;9.20;99.90;;;;;;4974269;28;20065;-75
2023/12/30 06:12:08;;;;;;;1.10;0.50;;;9.20;99.90;;;;;;4956083;28;20502;-75
2023/12/30 06:14:36;;;;;;;1.52;0.50;;;9.20;99.90;;;;;;4956342;28;20023;-75
2023/12/30 06:17:02;;;;;;;0.60;0.60;;;9.20;99.90;;;;;;4973330;28;20023;-75
2023/12/30 06:19:27;;;;;;;0.70;0.40;;;9.30;99.90;;;;;;4973841;28;20077;-75
2023/12/30 06:21:53;;;;;;;1.48;0.40;;;9.30;99.90;;;;;;4956451;28;20028;-75
2023/12/30 06:24:19;;;;;;;0.52;0.50;;;9.20;99.90;;;;;;4956033;28;20062;-74
2023/12/30 06:26:44;;;;;;;1.13;0.55;;;9.30;99.90;;;;;;4973760;28;20061;-75
2023/12/30 06:29:10;;;;;;;1.08;0.50;;;9.30;99.90;;;;;;4974797;28;20031;-75
2023/12/30 06:31:42;;;;;;;1.75;0.57;;;9.30;99.90;;;;;;4977523;28;20460;-75
2023/12/30 06:34:09;;;;;;;0.98;0.40;;;9.20;99.90;;;;;;4977048;28;20412;-75
2023/12/30 06:36:35;;;;;;;1.20;0.50;;;9.30;99.90;;;;;;4975944;28;20171;-75
2023/12/30 06:39:01;;;;;;;1.38;0.50;;;9.20;99.90;;;;;;4975698;28;20055;-75
2023/12/30 06:41:27;;;;;;;1.42;0.45;;;9.20;99.90;;;;;;4960097;28;20054;-75
2023/12/30 06:43:52;;;;;;;2.03;0.50;;;9.20;99.90;;;;;;4977703;28;20069;-75
2023/12/30 06:46:20;;;;;;;1.20;0.70;;;9.20;99.90;;;;;;4959584;28;20058;-75
2023/12/30 06:48:45;;;;;;;2.05;0.80;;;9.20;99.90;;;;;;4960249;28;20047;-75
2023/12/30 06:51:11;;;;;;;2.38;0.88;;;9.10;99.90;;;;;;4976899;28;20371;-75
2023/12/30 06:53:37;;;;;;;2.90;0.90;;;9.10;99.90;;;;;;4959917;28;20384;-75
2023/12/30 06:56:04;;;;;;;2.20;0.93;;;9.10;99.90;;;;;;4959281;28;20027;-75
2023/12/30 06:58:29;;;;;;;2.33;1.00;;;9.10;99.90;;;;;;4977177;28;20046;-74
2023/12/30 07:00:56;;;;;;;2.22;1.23;;;9.10;99.90;;;;;;4977088;28;20038;-75
2023/12/30 07:03:21;;;;;;;3.10;1.10;;;9.10;99.90;;;;;;4976312;28;20030;-75
2023/12/30 07:05:47;;;;;;;1.98;1.08;;;9.00;99.90;;;;;;4977007;28;20027;-75
2023/12/30 07:08:13;;;;;;;2.47;1.17;;;9.10;99.90;;;;;;4976550;28;20464;-75
2023/12/30 07:10:39;;;;;;;3.22;1.13;;;9.00;99.90;;;;;;4959722;28;20125;-75
2023/12/30 07:13:06;;;;;;;2.45;0.90;;;9.00;99.90;;;;;;4976129;28;20487;-75
2023/12/30 07:15:31;;;;;;;1.17;0.98;;;9.00;99.90;;;;;;4975544;28;20027;-75
2023/12/30 07:17:57;;;;;;;1.20;0.93;;;9.00;99.90;;;;;;4959540;28;20035;-75
2023/12/30 07:20:23;;;;;;;2.92;1.15;;;9.00;99.90;;;;;;4958994;28;20102;-75
2023/12/30 07:22:48;;;;;;;1.67;1.00;;;9.00;99.90;;;;;;4959442;28;20472;-75
2023/12/30 07:25:14;;;;;;;2.75;1.02;;;9.00;99.90;;;;;;4975949;28;20035;-75
2023/12/30 07:27:40;;;;;;;2.60;1.00;;;9.00;99.90;;;;;;4959209;28;20142;-75
2023/12/30 07:30:06;;;;;;;2.90;1.20;;;9.00;99.90;;;;;;4958807;28;20031;-75
2023/12/30 07:32:32;;;;;;;1.55;1.00;;;9.10;99.90;;;;;;4959204;28;20384;-75
2023/12/30 07:34:58;;;;;;;2.15;1.00;;;9.00;99.90;;;;;;4976215;28;20047;-75
2023/12/30 07:37:24;;;;;;;3.08;1.20;;;9.10;99.90;;;;;;4958505;28;20397;-75
2023/12/30 07:39:49;;;;;;;5.63;1.65;;;9.10;99.90;;;;;;4976140;28;20035;-75
2023/12/30 07:42:18;;;;;;;2.55;1.38;;;9.00;99.90;;;;;;4975268;28;20483;-75
2023/12/30 07:44:44;;;;;;;2.75;1.55;;;9.00;99.90;;;;;;4958992;28;20027;-75
2023/12/30 07:47:09;;;;;;;3.65;1.05;;;9.10;99.90;;;;;;4975456;28;20077;-75
2023/12/30 07:49:35;;;;;;;2.55;1.33;;;9.10;99.90;;;;;;4976229;28;20490;-75
2023/12/30 07:52:01;;;;;;;4.70;1.70;;;9.10;99.90;;;;;;4958547;28;20548;-90
2023/12/30 07:54:27;;;;;;;3.15;1.75;;;9.10;99.90;;;;;;4975080;28;20030;-75
2023/12/30 07:56:53;;;;;;;3.42;1.35;;;9.10;99.90;;;;;;4975992;28;20461;-75
2023/12/30 07:59:18;;;;;;;2.72;1.20;;;9.10;99.90;;;;;;4974471;28;20039;-75
2023/12/30 08:01:44;;;;;;;2.00;1.45;;;9.10;99.90;;;;;;4976054;28;20038;-75
2023/12/30 08:04:11;;;;;;;3.15;1.50;;;9.10;99.90;;;;;;4975592;28;20484;-76
2023/12/30 08:06:39;;;;;;;4.53;1.63;;;9.10;99.90;;;;;;4975897;28;20051;-75
2023/12/30 08:09:04;;;;;;;2.53;1.50;;;9.10;99.90;;;;;;4974350;28;20031;-76
2023/12/30 08:11:30;;;;;;;3.50;1.30;;;9.20;99.90;;;;;;4958545;28;20029;-75
2023/12/30 08:13:55;;;;;;;3.55;1.33;;;9.20;99.90;;;;;;4958061;28;20472;-75
2023/12/30 08:16:21;;;;;;;1.77;1.23;;;9.20;99.90;;;;;;4957994;28;20034;-76
2023/12/30 08:18:48;;;;;;;3.15;1.40;;;9.20;99.90;;;;;;4975388;28;20046;-76
2023/12/30 08:21:14;;;;;;;1.80;1.38;;;9.20;99.90;;;;;;4974051;28;20357;-75
2023/12/30 08:23:40;;;;;;;2.33;1.40;;;9.20;99.90;;;;;;4958194;28;20022;-75
2023/12/30 08:26:05;;;;;;;1.67;1.17;;;9.20;99.90;;;;;;4957663;28;20034;-76
2023/12/30 08:28:31;;;;;;;2.28;1.20;;;9.20;99.90;;;;;;4975838;28;20042;-75
2023/12/30 08:30:59;;;;;;;2.17;0.90;;;9.30;99.90;;;;;;4958193;28;20038;-75
2023/12/30 08:33:25;;;;;;;3.88;1.27;;;9.30;99.90;;;;;;4957493;28;20027;-76
2023/12/30 08:35:50;;;;;;;1.85;1.58;;;9.30;99.90;;;;;;4974207;28;20031;-75
2023/12/30 08:38:16;;;;;;;2.70;1.63;;;9.30;99.90;;;;;;4973449;28;20054;-76
2023/12/30 08:40:42;;;;;;;2.47;1.25;;;9.30;99.90;;;;;;4958097;28;20023;-76
2023/12/30 08:43:08;;;;;;;4.40;1.30;;;9.30;99.90;;;;;;4957452;28;20026;-75
2023/12/30 08:45:34;;;;;;;3.92;1.50;;;9.30;99.90;;;;;;4975236;28;20090;-76
2023/12/30 08:48:01;;;;;;;4.43;1.35;;;9.30;99.90;;;;;;4958101;28;20125;-75
2023/12/30 08:50:27;;;;;;;2.42;1.20;;;9.30;99.90;;;;;;4957286;28;20472;-75
2023/12/30 08:52:52;;;;;;;3.83;1.60;;;9.40;99.90;;;;;;4974990;28;20055;-75
2023/12/30 08:55:18;;;;;;;2.08;1.40;;;9.40;99.90;;;;;;4957394;28;20101;-76
2023/12/30 08:57:43;;;;;;;3.00;1.08;;;9.40;99.90;;;;;;4974789;28;20460;-76
2023/12/30 09:00:10;;;;;;;2.75;1.40;;;9.30;99.90;;;;;;4973196;28;20031;-76
2023/12/30 09:02:36;;;;;;;2.63;1.35;;;9.40;99.90;;;;;;4974833;28;20487;-75
2023/12/30 09:05:03;;;;;;;4.15;1.30;;;9.40;99.90;;;;;;4957595;28;20384;-75
2023/12/30 09:07:29;;;;;;;1.95;1.15;;;9.40;99.90;;;;;;4957082;28;20085;-75
2023/12/30 09:09:56;;;;;;;2.35;1.30;;;9.40;99.90;;;;;;4974852;28;20400;-75
2023/12/30 09:12:22;;;;;;;2.60;1.63;;;9.40;99.90;;;;;;4956896;28;20357;-75
2023/12/30 09:14:48;;;;;;;3.60;1.80;;;9.50;99.90;;;;;;4957304;28;20449;-75
2023/12/30 09:17:13;;;;;;;4.65;1.50;;;9.40;99.90;;;;;;4956704;28;20086;-75
2023/12/30 09:19:39;;;;;;;5.22;1.65;;;9.40;99.90;;;;;;4973329;28;20034;-75
2023/12/30 09:22:07;;;;;;;2.15;1.40;;;9.50;99.90;;;;;;4974741;28;20077;-75
2023/12/30 09:24:33;;;;;;;1.98;1.23;;;9.50;99.90;;;;;;4973445;28;20488;-75
2023/12/30 09:26:59;;;;;;;3.00;1.55;;;9.50;99.90;;;;;;4957153;28;20027;-76
2023/12/30 09:29:25;;;;;;;2.38;1.33;;;9.50;99.90;;;;;;4956406;28;20026;-75
2023/12/30 09:31:50;;;;;;;6.53;3.20;;;9.60;99.90;;;;;;4957096;28;20484;-75
2023/12/30 09:34:16;;;;;;;2.80;1.92;;;9.60;99.90;;;;;;4972773;28;20022;-75
2023/12/30 09:36:41;;;;;;;3.33;1.50;;;9.60;99.90;;;;;;4974200;28;20476;-76
2023/12/30 09:39:10;;;;;;;2.70;1.10;;;9.60;99.90;;;;;;4956812;28;20125;-89
2023/12/30 09:41:40;;;;;;;2.70;1.40;;;9.70;99.90;;;;;;4956992;28;20142;-75
2023/12/30 09:44:07;;;;;;;2.90;1.10;;;9.70;99.90;;;;;;4974239;28;20102;-76
2023/12/30 09:46:35;;;;;;;4.80;1.33;;;9.70;99.90;;;;;;4957173;28;20451;-75
2023/12/30 09:49:03;;;;;;;2.22;1.00;;;9.80;99.90;;;;;;4974149;28;20035;-76
2023/12/30 09:51:31;;;;;;;1.67;1.00;;;9.80;99.90;;;;;;4973660;28;20065;-76
2023/12/30 09:53:57;;;;;;;2.58;1.20;;;9.80;99.90;;;;;;4956806;28;20027;-75
2023/12/30 09:56:24;;;;;;;1.88;1.20;;;9.90;99.90;;;;;;4973655;28;20368;-76
2023/12/30 09:58:50;;;;;;;2.53;1.35;;;9.90;99.90;;;;;;4956367;28;20035;-76
2023/12/30 10:01:16;;;;;;;3.17;1.27;;;9.80;99.90;;;;;;4956569;28;20050;-75
2023/12/30 10:03:42;;;;;;;3.63;1.25;;;9.80;99.90;;;;;;4975834;28;20027;-76
2023/12/30 10:06:11;;;;;;;2.85;1.00;;;9.80;99.90;;;;;;4980439;28;20023;-75
2023/12/30 10:08:37;;;;;;;2.47;1.30;;;9.90;99.90;;;;;;4963308;28;20034;-75
2023/12/30 10:11:08;;;;;;;2.35;1.23;;;9.90;99.90;;;;;;4962831;28;20023;-75
2023/12/30 10:13:38;;;;;;;3.75;1.40;;;9.90;99.90;;;;;;4962872;28;20033;-76
2023/12/30 10:16:05;;;;;;;2.47;1.05;;;9.90;99.90;;;;;;4963174;28;20026;-76
2023/12/30 10:18:38;;;;;;;2.08;1.00;;;10.00;99.90;;;;;;4979901;28;20442;-76
2023/12/30 10:21:05;;;;;;;1.58;0.90;;;10.00;99.90;;;;;;4963175;28;20043;-76
2023/12/30 10:23:31;;;;;;;5.45;1.13;;;10.00;99.90;;;;;;4979755;28;20034;-76
2023/12/30 10:25:58;;;;;;;6.47;1.40;;;10.10;99.90;;;;;;4962878;28;20031;-75
2023/12/30 10:28:23;;;;;;;2.85;1.40;;;10.10;99.90;;;;;;4962318;28;20027;-76
2023/12/30 10:31:02;;;;;;;3.25;1.10;;;10.10;99.90;;;;;;4979186;28;20041;-76
2023/12/30 10:33:28;;;;;;;3.35;0.90;;;10.10;99.90;;;;;;4962566;28;20038;-76
2023/12/30 10:35:55;;;;;;;0.77;0.70;;;10.20;99.90;;;;;;4963013;28;20027;-76
2023/12/30 10:38:22;;;;;;;3.80;1.20;;;10.20;99.90;;;;;;4962063;28;20496;-76
2023/12/30 10:40:49;;;;;;;4.20;1.10;;;10.20;99.90;;;;;;4962926;28;20063;-75
2023/12/30 10:43:15;;;;;;;3.65;1.05;;;10.20;99.90;;;;;;4962291;28;20476;-76
2023/12/30 10:45:41;;;;;;;3.70;0.77;;;10.30;99.90;;;;;;4962697;28;20030;-76
2023/12/30 10:48:07;;;;;;;1.80;0.80;;;10.30;99.90;;;;;;4962646;28;20464;-75
2023/12/30 10:50:38;;;;;;;3.78;1.02;;;10.30;99.90;;;;;;4962063;28;20031;-76
2023/12/30 10:53:11;;;;;;;2.20;0.77;;;10.40;99.90;;;;;;4978953;28;20033;-75
2023/12/30 10:55:43;;;;;;;2.30;1.20;;;10.40;99.90;;;;;;4978581;28;20139;-75
2023/12/30 10:58:19;;;;;;;2.38;0.80;;;10.40;99.90;;;;;;4978386;28;20054;-76
2023/12/30 11:00:48;;;;;;;3.08;1.00;;;10.40;99.90;;;;;;4962341;28;20098;-76
2023/12/30 11:03:14;;;;;;;3.90;1.10;;;10.50;99.90;;;;;;4978336;28;20165;-77
2023/12/30 11:06:00;;;;;;;2.10;0.80;;;10.50;99.90;;;;;;4979633;28;20074;-75
2023/12/30 11:08:26;;;;;;;2.05;0.90;;;10.60;99.90;;;;;;4962198;28;20041;-75
2023/12/30 11:10:51;;;;;;;2.13;0.80;;;10.60;99.90;;;;;;4962502;28;20026;-75
2023/12/30 11:13:20;;;;;;;5.05;0.70;;;10.60;99.90;;;;;;4962219;28;20035;-75
2023/12/30 11:15:45;;;;;;;2.35;0.80;;;10.70;99.90;;;;;;4977049;28;20119;-76
2023/12/30 11:18:14;;;;;;;1.90;0.65;;;10.70;99.90;;;;;;4959369;28;20515;-76
2023/12/30 11:20:46;;;;;;;2.95;1.23;;;10.70;99.90;;;;;;4976825;28;20102;-76
2023/12/30 11:23:14;;;;;;;4.57;1.40;;;10.70;99.90;;;;;;4959353;28;20023;-76
2023/12/30 11:25:45;;;;;;;3.30;1.05;;;10.80;99.90;;;;;;4959468;28;20077;-76
2023/12/30 11:28:17;;;;;;;2.63;0.60;;;10.90;99.90;;;;;;4959396;28;20041;-76
2023/12/30 11:30:44;;;;;;;2.45;0.80;;;10.90;99.90;;;;;;4959591;28;20046;-76
2023/12/30 11:33:13;;;;;;;1.77;0.90;;;10.90;99.90;;;;;;4959142;28;20090;-76
2023/12/30 11:35:40;;;;;;;3.65;1.00;;;10.90;99.90;;;;;;4959184;28;20411;-76
2023/12/30 11:38:09;;;;;;;2.58;0.60;;;10.90;99.90;;;;;;4958825;28;20464;-75
2023/12/30 11:40:42;;;;;;;3.25;0.70;;;10.90;99.90;;;;;;4958642;28;20086;-75
2023/12/30 11:43:10;;;;;;;3.38;0.52;;;11.00;99.90;;;;;;4959220;28;20031;-75
2023/12/30 11:45:36;;;;;;;2.47;0.50;;;11.10;99.90;;;;;;4975843;28;20027;-75
2023/12/30 11:48:02;;;;;;;1.85;0.50;;;11.20;99.90;;;;;;4958923;28;20062;-75
2023/12/30 11:50:28;;;;;;;1.27;0.30;;;11.20;99.90;;;;;;4975751;28;20019;-76
2023/12/30 11:52:54;;;;;;;1.77;0.32;;;11.30;99.90;;;;;;4976244;28;20085;-75
2023/12/30 11:55:19;;;;;;;1.83;0.65;;;11.20;99.90;;;;;;4975580;28;20097;-76
2023/12/30 11:57:46;;;;;;;3.70;0.57;;;11.20;99.90;;;;;;4974618;28;20054;-75
2023/12/30 12:00:13;;;;;;;3.42;0.50;;;11.30;99.90;;;;;;4976114;28;20031;-75
2023/12/30 12:02:38;;;;;;;1.95;0.43;;;11.20;99.90;;;;;;4958290;28;20034;-75
2023/12/30 12:05:05;;;;;;;0.43;0.22;;;11.30;99.90;;;;;;4974636;28;20085;-75
2023/12/30 12:07:31;;;;;;;1.25;0.50;;;11.30;99.90;;;;;;4974193;28;20420;-75
2023/12/30 12:09:57;;;;;;;0.93;0.30;;;11.20;99.90;;;;;;4974643;28;20058;-75
2023/12/30 12:12:23;;;;;;;3.45;0.50;;;11.30;99.90;;;;;;4975729;28;20065;-76
2023/12/30 12:14:50;;;;;;;3.13;1.20;;;11.50;99.90;;;;;;4975751;28;20030;-75
2023/12/30 12:17:19;;;;;;;1.55;0.52;;;11.70;99.90;;;;;;4975584;28;20026;-86
2023/12/30 12:19:50;;;;;;;0.93;0.50;;;11.80;99.90;;;;;;4958419;28;20543;-75
2023/12/30 12:22:16;;;;;;;3.60;0.60;;;11.70;99.90;;;;;;4975819;28;20482;-75
2023/12/30 12:24:42;;;;;;;1.38;0.50;;;11.80;99.90;;;;;;4958541;28;20113;-76
2023/12/30 12:27:08;;;;;;;3.80;0.88;;;12.00;99.90;;;;;;4975271;28;20038;-76
2023/12/30 12:29:44;;;;;;;4.25;0.40;;;12.20;99.90;;;;;;4975399;28;20030;-75
2023/12/30 12:32:13;;;;;;;3.38;0.45;;;12.10;99.90;;;;;;4974458;28;20117;-75
2023/12/30 12:34:41;;;;;;;2.50;0.60;;;12.10;99.90;;;;;;4975052;28;20038;-76
2023/12/30 12:37:12;;;;;;;0.77;0.35;;;12.20;99.90;;;;;;4975046;28;20074;-76
2023/12/30 12:39:38;;;;;;;1.02;0.60;;;12.20;99.90;;;;;;4957668;28;20166;-76
2023/12/30 12:42:04;;;;;;;0.45;0.40;;;12.20;99.90;;;;;;4973945;28;20464;-76
2023/12/30 12:44:30;;;;;;;2.08;0.30;;;12.20;99.90;;;;;;4957450;28;20035;-76
2023/12/30 12:46:56;;;;;;;2.88;0.43;;;12.00;99.90;;;;;;4957814;28;20037;-75
2023/12/30 12:49:23;;;;;;;2.10;0.38;;;12.00;99.90;;;;;;4973253;28;20026;-76
2023/12/30 12:51:51;;;;;;;1.10;0.30;;;11.90;99.90;;;;;;4975057;28;20019;-75